Hlavní strana
METAR-TAF:

METAR-TAF

Letiště :

Letiště Vaasa

Vaasa, Finsko

zeměpisná šířka: 63-03N, zeměpisná délka: 021-46E, výška: 4 m

Aktuální stav počasí

Zpráva byla vytvořena před 26 minutami, v 21:20 UTC
Západojihozápadní vítr 11 kt
Teplota 3°C
Vlhkost vzduchu 81%
Tlak 1019 hPa
Viditelnost 10 km a více
Žádná oblačnost pod 1500 m, nevyskytují se cumulonimby.

METAR: EFVA 282120Z AUTO 24011KT CAVOK 03/00 Q1019

Čas: 23:46 (21:46 UTC)

Předpověď počasí

Zpráva byla vytvořena před 1 hodinou a 17 minutami, v 20:29 UTC
Předpověď platná od 28 v 21 UTC do 01 v 21 UTC
Západojihozápadní vítr 10 kt
Viditelnost 10 km a více
Žádná oblačnost pod 1500 m, nevyskytují se cumulonimby.

TAF: EFVA 282029Z 2821/0121 25010KT CAVOK

Stav a předpovědi počasí z více než 4 000 letišť (zprávy METAR a TAF).

Červené a žluté tečky na mapě představují dostupné meteorologické stanice.

Když kurzor umístíte na tečku, zobrazí se název stanice.

Pak kliknutím zobrazíte stav a předpověď počasí.

Chcete-li změnit mapu, kliknutím na zelené tlačítko se znaménkem +mapu přiblížíte, kliknutím na zelené tlačítko se znaménkem – mapu oddálíte a kliknutím na zelené šipky přejdete na sousední mapy.


METAR-TAF: